createdAt,value
2018-11-22T00:00:30.230Z,35.10
2018-11-22T00:02:01.803Z,28.40
2018-11-22T00:03:33.377Z,29.50
2018-11-22T00:05:04.945Z,28.80
2018-11-22T00:06:36.568Z,32.80
2018-11-22T00:08:08.089Z,31.00
2018-11-22T00:09:40.497Z,29.30
2018-11-22T00:11:11.235Z,33.90
2018-11-22T00:12:42.804Z,31.00
2018-11-22T00:14:14.375Z,31.80
2018-11-22T00:17:17.522Z,36.00
2018-11-22T00:18:49.091Z,31.10
2018-11-22T00:20:20.662Z,27.90
2018-11-22T00:21:52.234Z,31.00
2018-11-22T00:23:23.880Z,30.30
2018-11-22T00:24:55.379Z,33.00
2018-11-22T00:26:26.950Z,26.10
2018-11-22T00:27:58.522Z,30.20
2018-11-22T00:29:30.193Z,29.10
2018-11-22T00:31:01.664Z,29.50
2018-11-22T00:32:33.236Z,27.20
2018-11-22T00:34:04.808Z,27.30
2018-11-22T00:35:36.381Z,32.40
2018-11-22T00:37:07.952Z,29.70
2018-11-22T00:38:39.523Z,29.70
2018-11-22T00:40:11.095Z,28.60
2018-11-22T00:41:42.667Z,30.50
2018-11-22T00:43:14.239Z,30.10
2018-11-22T00:44:45.811Z,29.20
2018-11-22T00:46:17.382Z,27.20
2018-11-22T00:47:49.055Z,26.20
2018-11-22T00:49:20.526Z,27.00
2018-11-22T00:50:52.097Z,28.90
2018-11-22T00:52:23.669Z,21.10
2018-11-22T00:53:55.241Z,23.10
2018-11-22T00:55:26.825Z,21.70
2018-11-22T00:56:58.386Z,21.30
2018-11-22T00:58:29.957Z,23.90
2018-11-22T01:00:01.528Z,23.40
2018-11-22T01:01:33.101Z,26.70
2018-11-22T01:03:04.673Z,22.90
2018-11-22T01:04:36.244Z,20.00
2018-11-22T01:06:07.916Z,23.60
2018-11-22T01:07:39.388Z,20.20
2018-11-22T01:09:10.960Z,19.00
2018-11-22T01:10:42.532Z,20.60
2018-11-22T01:12:14.325Z,21.40
2018-11-22T01:13:45.675Z,22.90
2018-11-22T01:15:17.254Z,23.20
2018-11-22T01:16:48.818Z,20.10
2018-11-22T01:18:20.390Z,23.30
2018-11-22T01:19:51.963Z,18.90
2018-11-22T01:21:23.534Z,22.50
2018-11-22T01:24:26.778Z,22.70
2018-11-22T01:25:58.250Z,23.20
2018-11-22T01:27:29.822Z,23.40
2018-11-22T01:29:01.394Z,22.60
2018-11-22T01:30:32.967Z,21.60
2018-11-22T01:32:04.537Z,19.70
2018-11-22T01:33:36.110Z,20.80
2018-11-22T01:35:07.682Z,20.70
2018-11-22T01:36:39.253Z,22.80
2018-11-22T01:38:10.825Z,20.20
2018-11-22T01:39:42.398Z,21.80
2018-11-22T01:41:13.970Z,20.30
2018-11-22T01:42:45.641Z,21.40
2018-11-22T01:44:17.114Z,21.30
2018-11-22T01:45:48.686Z,24.10
2018-11-22T01:47:20.258Z,24.10
2018-11-22T01:48:51.830Z,19.60
2018-11-22T01:50:23.401Z,25.10
2018-11-22T01:51:54.973Z,24.30
2018-11-22T01:53:26.549Z,25.90
2018-11-22T01:54:58.117Z,27.10
2018-11-22T01:56:29.689Z,25.70
2018-11-22T01:58:01.262Z,27.30
2018-11-22T01:59:32.836Z,21.80
2018-11-22T02:01:04.507Z,25.30
2018-11-22T02:02:35.977Z,26.20
2018-11-22T02:04:07.549Z,21.90
2018-11-22T02:05:39.121Z,27.30
2018-11-22T02:07:10.693Z,30.80
2018-11-22T02:08:42.266Z,30.50
2018-11-22T02:10:13.837Z,25.60
2018-11-22T02:11:45.409Z,27.20
2018-11-22T02:13:16.986Z,28.40
2018-11-22T02:14:48.553Z,29.20
2018-11-22T02:16:20.125Z,29.30
2018-11-22T02:17:51.698Z,29.20
2018-11-22T02:19:23.577Z,26.60
2018-11-22T02:20:54.841Z,27.20
2018-11-22T02:22:26.413Z,28.40
2018-11-22T02:23:57.985Z,27.60
2018-11-22T02:25:29.558Z,25.40
2018-11-22T02:27:01.133Z,26.90
2018-11-22T02:28:32.702Z,31.50
2018-11-22T02:30:04.274Z,29.00
2018-11-22T02:31:35.847Z,28.10
2018-11-22T02:33:07.419Z,30.00
2018-11-22T02:34:38.991Z,26.10
2018-11-22T02:36:10.563Z,29.60
2018-11-22T02:37:42.241Z,31.70
2018-11-22T02:39:13.708Z,30.50
2018-11-22T02:40:45.282Z,31.70
2018-11-22T02:42:16.855Z,29.10
2018-11-22T02:43:48.424Z,27.80
2018-11-22T02:45:20.000Z,32.20
2018-11-22T02:48:23.141Z,32.70
2018-11-22T02:49:54.713Z,34.60
2018-11-22T02:51:26.286Z,32.00
2018-11-22T02:52:57.857Z,32.60
2018-11-22T02:54:29.429Z,34.80
2018-11-22T02:56:01.102Z,35.10
2018-11-22T02:57:32.575Z,36.50
2018-11-22T02:59:04.152Z,34.00
2018-11-22T03:00:35.717Z,33.40
2018-11-22T03:02:07.289Z,31.50
2018-11-22T03:05:10.434Z,31.10
2018-11-22T03:06:42.006Z,26.00
2018-11-22T03:08:13.578Z,31.80
2018-11-22T03:09:45.151Z,29.20
2018-11-22T03:11:16.722Z,30.30
2018-11-22T03:12:48.353Z,31.20
2018-11-22T03:14:19.966Z,26.00
2018-11-22T03:15:51.438Z,31.10
2018-11-22T03:17:23.010Z,32.40
2018-11-22T03:18:54.582Z,29.30
2018-11-22T03:20:26.156Z,28.70
2018-11-22T03:21:57.727Z,37.00
2018-11-22T03:23:29.298Z,33.30
2018-11-22T03:25:00.870Z,28.70
2018-11-22T03:26:32.444Z,29.10
2018-11-22T03:28:04.014Z,36.80
2018-11-22T03:29:35.590Z,36.10
2018-11-22T03:31:07.159Z,33.40
2018-11-22T03:32:38.853Z,31.90
2018-11-22T03:34:10.301Z,34.30
2018-11-22T03:37:13.444Z,31.80
2018-11-22T03:38:45.016Z,33.10
2018-11-22T03:40:16.588Z,36.50
2018-11-22T03:41:48.160Z,35.80
2018-11-22T03:43:19.730Z,40.00
2018-11-22T03:44:51.302Z,41.40
2018-11-22T03:46:22.874Z,43.60
2018-11-22T03:47:54.446Z,50.50
2018-11-22T03:49:26.017Z,49.40
2018-11-22T03:50:57.689Z,37.30
2018-11-22T03:52:29.160Z,26.50
2018-11-22T03:54:00.733Z,23.80
2018-11-22T03:55:32.303Z,23.70
2018-11-22T03:57:03.875Z,20.90
2018-11-22T03:58:35.446Z,20.40
2018-11-22T04:00:07.021Z,17.90
2018-11-22T04:01:38.589Z,16.70
2018-11-22T04:03:10.161Z,18.60
2018-11-22T04:04:41.732Z,20.30
2018-11-22T04:06:13.304Z,16.70
2018-11-22T04:09:16.554Z,16.40
2018-11-22T04:10:48.020Z,17.80
2018-11-22T04:12:19.591Z,16.40
2018-11-22T04:13:51.161Z,16.40
2018-11-22T04:15:22.734Z,15.30
2018-11-22T04:16:54.609Z,12.60
2018-11-22T04:18:25.876Z,17.10
2018-11-22T04:19:57.447Z,17.00
2018-11-22T04:21:29.019Z,18.00
2018-11-22T04:23:00.593Z,17.90
2018-11-22T04:24:32.163Z,20.40
2018-11-22T04:26:03.733Z,18.60
2018-11-22T04:27:35.406Z,17.30
2018-11-22T04:29:06.879Z,18.70
2018-11-22T04:30:38.447Z,18.40
2018-11-22T04:32:10.019Z,19.00
2018-11-22T04:33:41.792Z,20.50
2018-11-22T04:35:13.163Z,19.80
2018-11-22T04:36:44.733Z,19.20
2018-11-22T04:38:16.305Z,24.00
2018-11-22T04:39:47.877Z,18.50
2018-11-22T04:41:19.448Z,19.90
2018-11-22T04:42:51.019Z,16.80
2018-11-22T04:44:22.591Z,18.70
2018-11-22T04:45:54.262Z,17.50
2018-11-22T04:47:25.734Z,18.80
2018-11-22T04:48:57.305Z,19.10
2018-11-22T04:50:28.876Z,18.30
2018-11-22T04:52:00.491Z,19.00
2018-11-22T04:53:32.020Z,20.30
2018-11-22T04:55:03.595Z,17.30
2018-11-22T04:56:35.162Z,19.10
2018-11-22T04:58:06.734Z,17.40
2018-11-22T04:59:38.306Z,19.10
2018-11-22T05:01:09.877Z,16.70
2018-11-22T05:02:41.449Z,16.90
2018-11-22T05:04:13.121Z,19.00
2018-11-22T05:05:44.592Z,18.10
2018-11-22T05:07:16.164Z,16.50
2018-11-22T05:08:47.736Z,18.70
2018-11-22T05:10:19.308Z,18.70
2018-11-22T05:11:50.879Z,17.70
2018-11-22T05:13:22.453Z,17.10
2018-11-22T05:14:54.327Z,17.00
2018-11-22T05:16:25.594Z,19.10
2018-11-22T05:17:57.166Z,18.50
2018-11-22T05:19:28.738Z,19.70
2018-11-22T05:21:00.310Z,16.80
2018-11-22T05:22:31.981Z,16.50
2018-11-22T05:24:03.453Z,15.60
2018-11-22T05:25:35.025Z,17.30
2018-11-22T05:27:06.597Z,17.40
2018-11-22T05:28:38.168Z,18.70
2018-11-22T05:30:09.740Z,18.20
2018-11-22T05:31:41.820Z,22.30
2018-11-22T05:33:12.883Z,18.20
2018-11-22T05:34:44.455Z,20.30
2018-11-22T05:36:16.027Z,22.80
2018-11-22T05:37:47.599Z,22.00
2018-11-22T05:39:19.171Z,22.50
2018-11-22T05:40:51.045Z,20.60
2018-11-22T05:42:22.313Z,19.80
2018-11-22T05:43:53.885Z,25.10
2018-11-22T05:45:25.457Z,23.60
2018-11-22T05:48:28.600Z,19.40
2018-11-22T05:50:00.172Z,21.00
2018-11-22T05:51:31.744Z,20.40
2018-11-22T05:53:03.315Z,23.00
2018-11-22T05:54:34.887Z,23.80
2018-11-22T05:56:06.460Z,22.40
2018-11-22T05:57:38.031Z,24.60
2018-11-22T05:59:09.603Z,22.10
2018-11-22T06:00:41.275Z,28.90
2018-11-22T06:02:12.747Z,27.40
2018-11-22T06:03:44.318Z,29.20
2018-11-22T06:05:15.890Z,26.70
2018-11-22T06:06:47.462Z,25.10
2018-11-22T06:08:19.037Z,25.90
2018-11-22T06:09:50.606Z,31.40
2018-11-22T06:11:22.178Z,33.20
2018-11-22T06:12:54.054Z,34.20
2018-11-22T06:14:25.321Z,30.80
2018-11-22T06:15:56.893Z,34.80
2018-11-22T06:17:28.503Z,33.60
2018-11-22T06:19:00.137Z,31.80
2018-11-22T06:20:31.611Z,30.70
2018-11-22T06:22:03.180Z,27.50
2018-11-22T06:23:34.751Z,24.30
2018-11-22T06:25:06.324Z,26.60
2018-11-22T06:26:37.895Z,26.30
2018-11-22T06:28:09.467Z,22.90
2018-11-22T06:31:12.610Z,25.10
2018-11-22T06:32:44.182Z,26.50
2018-11-22T06:34:15.753Z,26.00
2018-11-22T06:35:47.325Z,25.00
2018-11-22T06:37:18.997Z,20.20
2018-11-22T06:40:22.043Z,22.70
2018-11-22T06:41:53.612Z,27.60
2018-11-22T06:43:25.183Z,24.40
2018-11-22T06:44:56.754Z,26.90
2018-11-22T06:46:28.326Z,25.70
2018-11-22T06:47:59.897Z,24.90
2018-11-22T06:49:31.470Z,23.30
2018-11-22T06:51:03.041Z,24.00
2018-11-22T06:52:34.612Z,25.60
2018-11-22T06:54:06.185Z,22.00
2018-11-22T06:55:37.855Z,23.50
2018-11-22T06:57:09.327Z,24.90
2018-11-22T06:58:40.897Z,24.70
2018-11-22T07:00:12.470Z,23.50
2018-11-22T07:03:15.612Z,24.70
2018-11-22T07:04:47.183Z,21.70
2018-11-22T07:06:18.754Z,21.90
2018-11-22T07:07:50.325Z,24.70
2018-11-22T07:09:21.896Z,24.80
2018-11-22T07:10:53.468Z,24.60
2018-11-22T07:12:25.039Z,22.20
2018-11-22T07:13:56.613Z,20.50
2018-11-22T07:15:28.281Z,22.80
2018-11-22T07:16:59.756Z,23.00
2018-11-22T07:18:31.324Z,23.60
2018-11-22T07:20:02.895Z,22.50
2018-11-22T07:21:34.466Z,22.30
2018-11-22T07:23:06.039Z,20.90
2018-11-22T07:24:37.610Z,25.20
2018-11-22T07:26:09.184Z,24.90
2018-11-22T07:27:41.057Z,22.80
2018-11-22T07:29:12.324Z,20.30
2018-11-22T07:30:43.896Z,22.40
2018-11-22T07:32:15.469Z,27.00
2018-11-22T07:33:47.139Z,20.70
2018-11-22T07:35:18.610Z,23.00
2018-11-22T07:36:50.715Z,24.20
2018-11-22T07:38:21.753Z,26.00
2018-11-22T07:39:53.325Z,25.10
2018-11-22T07:41:24.896Z,28.30
2018-11-22T07:42:56.468Z,28.20
2018-11-22T07:44:28.039Z,29.40
2018-11-22T07:45:59.611Z,27.60
2018-11-22T07:47:31.186Z,27.60
2018-11-22T07:49:02.754Z,30.30
2018-11-22T07:50:34.325Z,29.40
2018-11-22T07:52:05.997Z,29.60
2018-11-22T07:53:37.471Z,33.60
2018-11-22T07:55:09.040Z,31.00
2018-11-22T07:56:40.688Z,31.50
2018-11-22T07:58:12.183Z,29.40
2018-11-22T07:59:43.754Z,26.70
2018-11-22T08:01:15.326Z,28.40
2018-11-22T08:02:46.921Z,28.60
2018-11-22T08:04:18.470Z,30.50
2018-11-22T08:05:50.041Z,32.30
2018-11-22T08:07:21.612Z,32.10
2018-11-22T08:08:53.184Z,33.70
2018-11-22T08:10:24.859Z,33.20
2018-11-22T08:11:56.332Z,34.00
2018-11-22T08:13:27.899Z,29.70
2018-11-22T08:14:59.673Z,31.20
2018-11-22T08:18:02.614Z,26.90
2018-11-22T08:19:34.185Z,27.10
2018-11-22T08:21:05.757Z,25.80
2018-11-22T08:22:37.327Z,22.50
2018-11-22T08:24:09.101Z,24.00
2018-11-22T08:25:40.470Z,23.20
2018-11-22T08:27:12.044Z,22.10
2018-11-22T08:28:43.614Z,20.70
2018-11-22T08:30:15.285Z,17.60
2018-11-22T08:33:18.329Z,16.40
2018-11-22T08:36:21.779Z,21.80
2018-11-22T08:37:53.044Z,18.50
2018-11-22T08:39:24.616Z,20.10
2018-11-22T08:40:56.939Z,14.10
2018-11-22T08:42:27.964Z,14.60
2018-11-22T08:43:59.556Z,15.30
2018-11-22T08:45:31.106Z,15.50
2018-11-22T08:48:35.060Z,17.10
2018-11-22T08:50:05.719Z,17.00
2018-11-22T08:51:37.208Z,16.60
2018-11-22T08:53:09.429Z,14.50
2018-11-22T08:54:40.367Z,16.50
2018-11-22T08:56:12.213Z,13.80
2018-11-22T08:59:15.260Z,10.70
2018-11-22T09:02:18.198Z,10.00
2018-11-22T09:03:50.139Z,10.30
2018-11-22T09:06:53.125Z,9.70
2018-11-22T09:08:24.597Z,8.70
2018-11-22T09:09:56.682Z,8.00
2018-11-22T09:11:28.527Z,8.70
2018-11-22T09:14:31.615Z,7.80
2018-11-22T09:16:02.448Z,8.90
2018-11-22T09:17:33.970Z,8.80
2018-11-22T09:19:05.675Z,8.30
2018-11-22T09:20:38.301Z,8.20
2018-11-22T09:22:09.342Z,8.80
2018-11-22T09:23:40.472Z,8.50
2018-11-22T09:25:13.176Z,9.40
2018-11-22T09:26:45.959Z,8.10
2018-11-22T09:28:15.325Z,8.00
2018-11-22T09:29:47.802Z,7.80
2018-11-22T09:31:20.396Z,6.90
2018-11-22T09:32:51.483Z,7.10
2018-11-22T09:34:21.301Z,7.90
2018-11-22T09:35:53.986Z,7.90
2018-11-22T09:37:26.322Z,7.60
2018-11-22T09:38:57.601Z,6.30
2018-11-22T09:40:30.059Z,6.90
2018-11-22T09:42:00.955Z,6.70
2018-11-22T09:43:30.862Z,7.00
2018-11-22T09:46:34.884Z,6.40
2018-11-22T09:48:05.548Z,6.90
2018-11-22T09:49:38.188Z,7.00
2018-11-22T09:51:09.031Z,6.30
2018-11-22T09:52:40.201Z,6.00
2018-11-22T09:54:12.015Z,6.40
2018-11-22T09:55:43.995Z,7.00
2018-11-22T09:57:15.298Z,7.40
2018-11-22T09:58:46.693Z,7.10
2018-11-22T10:00:18.478Z,8.10
2018-11-22T10:03:21.250Z,7.20
2018-11-22T10:04:54.485Z,6.90
2018-11-22T10:06:25.232Z,6.10
2018-11-22T10:07:57.365Z,5.80
2018-11-22T10:09:27.952Z,10.10
2018-11-22T10:10:59.244Z,7.10
2018-11-22T10:14:02.588Z,5.20
2018-11-22T10:15:34.196Z,6.20
2018-11-22T10:17:06.001Z,8.10
2018-11-22T10:18:37.162Z,6.30
2018-11-22T10:20:09.134Z,6.40
2018-11-22T10:21:41.260Z,6.90
2018-11-22T10:23:13.278Z,7.00
2018-11-22T10:24:43.332Z,5.90
2018-11-22T10:26:15.025Z,5.60
2018-11-22T10:27:47.932Z,4.30
2018-11-22T10:29:18.240Z,5.10
2018-11-22T10:30:49.728Z,5.20
2018-11-22T10:32:22.004Z,5.40
2018-11-22T10:33:53.718Z,5.30
2018-11-22T10:35:24.560Z,4.90
2018-11-22T10:38:28.098Z,5.70
2018-11-22T10:40:00.164Z,7.80
2018-11-22T10:41:31.063Z,6.20
2018-11-22T10:44:34.427Z,5.40
2018-11-22T10:46:05.540Z,5.80
2018-11-22T10:47:37.742Z,6.40
2018-11-22T10:49:09.721Z,6.70
2018-11-22T10:50:40.697Z,5.70
2018-11-22T10:52:12.798Z,6.00
2018-11-22T10:53:44.459Z,6.30
2018-11-22T10:55:16.494Z,6.00
2018-11-22T10:56:47.053Z,6.70
2018-11-22T10:58:18.571Z,5.40
2018-11-22T10:59:49.872Z,5.90
2018-11-22T11:01:21.384Z,5.40
2018-11-22T11:02:53.001Z,7.50
2018-11-22T11:04:24.713Z,6.20
2018-11-22T11:05:56.098Z,5.20
2018-11-22T11:08:59.215Z,6.10
2018-11-22T11:10:30.670Z,6.00
2018-11-22T11:13:33.890Z,5.30
2018-11-22T11:16:37.081Z,5.90
2018-11-22T11:18:09.256Z,6.10
2018-11-22T11:19:40.450Z,5.50
2018-11-22T11:21:11.736Z,6.20
2018-11-22T11:22:43.526Z,6.10
2018-11-22T11:24:14.895Z,5.80
2018-11-22T11:25:46.470Z,5.40
2018-11-22T11:27:18.256Z,5.50
2018-11-22T11:28:49.636Z,5.60
2018-11-22T11:30:21.751Z,5.20
2018-11-22T11:31:53.332Z,6.50
2018-11-22T11:33:24.391Z,6.80
2018-11-22T11:34:56.163Z,6.60
2018-11-22T11:36:27.543Z,7.00
2018-11-22T11:37:59.225Z,6.00
2018-11-22T11:39:30.705Z,6.50
2018-11-22T11:41:02.612Z,7.00
2018-11-22T11:42:33.889Z,6.40
2018-11-22T11:44:05.484Z,6.00
2018-11-22T11:45:38.196Z,5.80
2018-11-22T11:48:40.947Z,5.60
2018-11-22T11:50:11.779Z,6.70
2018-11-22T11:53:15.459Z,8.80
2018-11-22T11:56:18.676Z,6.80
2018-11-22T11:57:50.162Z,6.10
2018-11-22T11:59:21.459Z,6.70
2018-11-22T12:00:53.306Z,6.20
2018-11-22T12:02:25.044Z,6.30
2018-11-22T12:03:56.020Z,5.60
2018-11-22T12:05:27.607Z,5.30
2018-11-22T12:10:02.650Z,5.80
2018-11-22T12:11:35.590Z,5.50
2018-11-22T12:13:06.031Z,5.70
2018-11-22T12:14:38.604Z,5.20
2018-11-22T12:17:40.423Z,5.50
2018-11-22T12:20:43.437Z,6.90
2018-11-22T12:22:15.018Z,4.90
2018-11-22T12:23:47.133Z,5.50
2018-11-22T12:25:18.184Z,5.80
2018-11-22T12:26:49.970Z,5.10
2018-11-22T12:29:53.002Z,5.20
2018-11-22T12:31:24.569Z,5.80
2018-11-22T12:34:27.686Z,4.40
2018-11-22T12:35:59.424Z,4.90
2018-11-22T12:37:31.158Z,4.80
2018-11-22T12:39:02.437Z,4.00
2018-11-22T12:40:34.040Z,4.00
2018-11-22T12:42:05.605Z,4.60
2018-11-22T12:46:40.816Z,3.90
2018-11-22T12:48:11.999Z,5.30
2018-11-22T12:49:43.580Z,4.40
2018-11-22T12:51:15.332Z,4.90
2018-11-22T12:52:46.953Z,4.70
2018-11-22T12:54:18.388Z,4.20
2018-11-22T12:55:49.870Z,4.10
2018-11-22T12:57:21.457Z,4.90
2018-11-22T13:00:25.019Z,4.70
2018-11-22T13:01:57.412Z,5.40
2018-11-22T13:03:28.016Z,4.30
2018-11-22T13:04:59.965Z,6.20
2018-11-22T13:06:31.538Z,5.10
2018-11-22T13:08:02.740Z,4.70
2018-11-22T13:09:34.475Z,4.50
2018-11-22T13:11:05.729Z,4.90
2018-11-22T13:12:37.415Z,4.70
2018-11-22T13:14:08.899Z,4.50
2018-11-22T13:18:43.889Z,4.50
2018-11-22T13:20:15.559Z,4.10
2018-11-22T13:23:18.410Z,4.20
2018-11-22T13:24:50.200Z,3.40
2018-11-22T13:26:21.890Z,3.20
2018-11-22T13:27:53.573Z,4.40
2018-11-22T13:29:25.150Z,4.80
2018-11-22T13:30:56.492Z,5.00
2018-11-22T13:32:28.079Z,5.10
2018-11-22T13:34:00.758Z,3.50
2018-11-22T13:35:31.639Z,3.60
2018-11-22T13:38:34.273Z,3.30
2018-11-22T13:40:05.862Z,3.90
2018-11-22T13:41:37.439Z,4.20
2018-11-22T13:43:09.025Z,3.80
2018-11-22T13:44:40.608Z,4.00
2018-11-22T13:46:12.194Z,4.20
2018-11-22T13:47:45.502Z,3.60
2018-11-22T13:50:47.367Z,3.60
2018-11-22T13:52:19.292Z,3.70
2018-11-22T13:53:50.161Z,4.20
2018-11-22T13:55:21.693Z,3.30
2018-11-22T13:56:53.918Z,3.20
2018-11-22T14:01:28.390Z,3.00
2018-11-22T14:02:59.714Z,2.80
2018-11-22T14:04:31.331Z,2.80
2018-11-22T14:07:34.363Z,4.70
2018-11-22T14:09:06.582Z,5.00
2018-11-22T14:10:37.531Z,3.10
2018-11-22T14:12:09.423Z,4.30
2018-11-22T14:13:41.103Z,2.90
2018-11-22T14:15:12.500Z,3.20
2018-11-22T14:16:44.603Z,2.90
2018-11-22T14:18:15.858Z,2.70
2018-11-22T14:21:19.035Z,3.40
2018-11-22T14:22:50.519Z,3.40
2018-11-22T14:24:21.786Z,2.30
2018-11-22T14:27:25.158Z,2.40
2018-11-22T14:28:56.545Z,2.80
2018-11-22T14:30:28.123Z,2.60
2018-11-22T14:31:59.710Z,2.40
2018-11-22T14:33:31.297Z,2.20
2018-11-22T14:36:34.674Z,2.40
2018-11-22T14:38:06.054Z,1.90
2018-11-22T14:39:37.644Z,3.70
2018-11-22T14:41:09.427Z,1.60
2018-11-22T14:42:40.810Z,1.90
2018-11-22T14:45:44.333Z,2.00
2018-11-22T14:47:15.565Z,1.80
2018-11-22T14:48:47.352Z,2.60
2018-11-22T14:50:19.475Z,2.40
2018-11-22T14:53:21.902Z,2.60
2018-11-22T14:54:53.823Z,2.40
2018-11-22T14:56:26.433Z,2.60
2018-11-22T14:57:56.959Z,2.30
2018-11-22T14:59:28.266Z,1.80
2018-11-22T15:01:00.258Z,2.10
2018-11-22T15:02:31.417Z,2.50
2018-11-22T15:04:02.991Z,1.90
2018-11-22T15:05:34.679Z,1.90
2018-11-22T15:08:37.742Z,1.90
2018-11-22T15:10:09.330Z,2.00
2018-11-22T15:11:41.054Z,1.70
2018-11-22T15:13:12.807Z,2.50
2018-11-22T15:17:47.583Z,2.30
2018-11-22T15:19:19.455Z,2.20
2018-11-22T15:22:22.164Z,3.10
2018-11-22T15:23:54.176Z,2.80
2018-11-22T15:25:25.264Z,2.40
2018-11-22T15:26:57.545Z,1.90
2018-11-22T15:28:28.420Z,2.80
2018-11-22T15:30:00.236Z,2.10
2018-11-22T15:33:03.326Z,2.10
2018-11-22T15:36:06.881Z,2.10
2018-11-22T15:37:38.523Z,2.10
2018-11-22T15:39:10.250Z,1.50
2018-11-22T15:42:13.043Z,2.10
2018-11-22T15:43:44.586Z,2.20
2018-11-22T15:45:15.824Z,1.80
2018-11-22T15:46:47.540Z,1.60
2018-11-22T15:48:18.996Z,1.70
2018-11-22T15:49:50.584Z,1.90
2018-11-22T15:51:22.168Z,2.00
2018-11-22T15:54:25.341Z,1.60
2018-11-22T15:55:56.928Z,1.90
2018-11-22T15:57:28.616Z,2.20
2018-11-22T15:59:00.349Z,2.10
2018-11-22T16:00:32.042Z,1.70
2018-11-22T16:02:03.283Z,1.70
2018-11-22T16:05:06.535Z,2.80
2018-11-22T16:06:38.034Z,1.90
2018-11-22T16:08:09.639Z,3.90
2018-11-22T16:09:41.213Z,2.70
2018-11-22T16:11:14.923Z,1.80
2018-11-22T16:17:20.042Z,2.10
2018-11-22T16:18:50.913Z,1.60
2018-11-22T16:24:57.587Z,1.80
2018-11-22T16:26:28.636Z,3.00
2018-11-22T16:28:00.282Z,1.70
2018-11-22T16:29:31.807Z,2.60
2018-11-22T16:31:03.621Z,1.80
2018-11-22T16:32:34.978Z,2.20
2018-11-22T16:34:06.719Z,1.90
2018-11-22T16:35:38.895Z,1.50
2018-11-22T16:37:10.181Z,1.50
2018-11-22T16:38:41.329Z,2.10
2018-11-22T16:41:44.503Z,1.50
2018-11-22T16:43:17.590Z,1.60
2018-11-22T16:46:19.267Z,1.60
2018-11-22T16:49:22.437Z,2.20
2018-11-22T16:50:54.021Z,3.30
2018-11-22T16:52:25.910Z,1.60
2018-11-22T16:55:28.877Z,1.40
2018-11-22T16:58:31.946Z,2.80
2018-11-22T17:01:35.225Z,2.20
2018-11-22T17:03:06.702Z,1.80
2018-11-22T17:04:38.288Z,1.70
2018-11-22T17:06:09.876Z,1.50
2018-11-22T17:07:43.428Z,2.00
2018-11-22T17:09:13.557Z,2.80
2018-11-22T17:10:44.633Z,1.90
2018-11-22T17:12:16.221Z,1.50
2018-11-22T17:13:47.942Z,1.60
2018-11-22T17:15:19.394Z,1.70
2018-11-22T17:16:50.981Z,3.20
2018-11-22T17:18:22.566Z,1.90
2018-11-22T17:24:29.427Z,2.50
2018-11-22T17:26:00.491Z,1.70
2018-11-22T17:27:32.074Z,4.20
2018-11-22T17:29:03.660Z,14.30
2018-11-22T17:33:38.898Z,17.30
2018-11-22T17:35:10.211Z,18.80
2018-11-22T17:38:13.162Z,17.20
2018-11-22T17:39:44.745Z,17.20
2018-11-22T17:41:16.328Z,18.60
2018-11-22T17:42:47.912Z,18.30
2018-11-22T17:44:19.496Z,20.30
2018-11-22T17:45:51.080Z,23.40
2018-11-22T17:47:22.666Z,22.20
2018-11-22T17:50:25.829Z,22.20
2018-11-22T17:51:57.511Z,22.20
2018-11-22T17:53:28.994Z,22.40
2018-11-22T17:55:00.578Z,23.30
2018-11-22T17:56:32.160Z,23.80
2018-11-22T17:58:04.051Z,25.30
2018-11-22T17:59:35.329Z,21.90
2018-11-22T18:01:07.112Z,22.50
2018-11-22T18:02:38.493Z,21.70
2018-11-22T18:04:10.076Z,22.20
2018-11-22T18:08:44.903Z,25.40
2018-11-22T18:10:16.512Z,23.50
2018-11-22T18:13:20.479Z,24.90
2018-11-22T18:14:51.203Z,26.00
2018-11-22T18:16:23.061Z,26.20
2018-11-22T18:17:54.312Z,25.40
2018-11-22T18:19:25.902Z,25.20
2018-11-22T18:20:58.007Z,25.30
2018-11-22T18:22:29.091Z,24.30
2018-11-22T18:24:00.633Z,24.00
2018-11-22T18:25:32.213Z,23.30
2018-11-22T18:28:36.009Z,22.20
2018-11-22T18:30:07.560Z,24.50
2018-11-22T18:31:38.533Z,24.40
2018-11-22T18:34:42.428Z,24.60
2018-11-22T18:36:13.272Z,25.10
2018-11-22T18:37:45.462Z,27.10
2018-11-22T18:39:17.421Z,24.00
2018-11-22T18:40:48.214Z,27.20
2018-11-22T18:42:19.590Z,25.80
2018-11-22T18:43:51.170Z,26.00
2018-11-22T18:45:22.749Z,31.10
2018-11-22T18:48:26.542Z,32.70
2018-11-22T18:49:57.488Z,28.90
2018-11-22T18:51:29.066Z,33.80
2018-11-22T18:53:00.644Z,30.80
2018-11-22T18:54:32.224Z,30.70
2018-11-22T18:57:35.383Z,35.10
2018-11-22T19:00:38.544Z,34.60
2018-11-22T19:05:13.275Z,38.10
2018-11-22T19:06:44.952Z,37.60
2018-11-22T19:08:16.432Z,40.00
2018-11-22T19:11:19.585Z,38.10
2018-11-22T19:14:22.744Z,39.50
2018-11-22T19:15:54.318Z,41.70
2018-11-22T19:17:25.896Z,43.30
2018-11-22T19:18:57.981Z,44.00
2018-11-22T19:20:29.050Z,43.30
2018-11-22T19:22:01.163Z,44.60
2018-11-22T19:23:32.737Z,43.40
2018-11-22T19:25:04.295Z,46.80
2018-11-22T19:26:35.458Z,43.90
2018-11-22T19:28:06.946Z,50.20
2018-11-22T19:31:10.090Z,49.00
2018-11-22T19:32:41.666Z,51.00
2018-11-22T19:34:13.251Z,49.70
2018-11-22T19:35:45.027Z,48.20
2018-11-22T19:38:47.976Z,44.50
2018-11-22T19:40:20.084Z,47.60
2018-11-22T19:41:51.125Z,38.90
2018-11-22T19:43:22.703Z,41.90
2018-11-22T19:44:54.891Z,39.20
2018-11-22T19:46:25.855Z,38.50
2018-11-22T19:47:57.434Z,37.20
2018-11-22T19:49:29.009Z,35.90
2018-11-22T19:51:05.616Z,35.80
2018-11-22T19:54:03.950Z,41.40
2018-11-22T19:55:35.318Z,42.30
2018-11-22T19:57:06.895Z,42.10
2018-11-22T19:58:38.472Z,41.00
2018-11-22T20:00:10.050Z,41.30
2018-11-22T20:01:41.632Z,38.50
2018-11-22T20:03:13.304Z,39.90
2018-11-22T20:04:44.802Z,37.90
2018-11-22T20:06:16.359Z,40.20
2018-11-22T20:07:48.140Z,38.60
2018-11-22T20:09:19.515Z,41.40
2018-11-22T20:10:51.091Z,38.20
2018-11-22T20:12:22.974Z,34.50
2018-11-22T20:13:54.449Z,40.30
2018-11-22T20:15:25.824Z,38.40
2018-11-22T20:18:28.976Z,37.90
2018-11-22T20:20:00.554Z,31.70
2018-11-22T20:23:04.112Z,29.60
2018-11-22T20:24:35.283Z,31.80
2018-11-22T20:29:10.520Z,27.90
2018-11-22T20:30:41.589Z,30.60
2018-11-22T20:32:13.165Z,25.80
2018-11-22T20:35:16.320Z,23.00
2018-11-22T20:36:47.896Z,22.10
2018-11-22T20:38:19.471Z,20.30
2018-11-22T20:39:51.047Z,24.90
2018-11-22T20:41:22.724Z,24.20
2018-11-22T20:42:55.140Z,22.30
2018-11-22T20:44:26.082Z,21.90
2018-11-22T20:47:29.134Z,18.50
2018-11-22T20:49:00.822Z,19.70
2018-11-22T20:52:03.662Z,21.40
2018-11-22T20:53:35.238Z,22.20
2018-11-22T20:56:38.390Z,22.60
2018-11-22T20:58:09.971Z,20.60
2018-11-22T20:59:41.845Z,19.40
2018-11-22T21:01:13.119Z,18.50
2018-11-22T21:02:44.694Z,22.30
2018-11-22T21:04:16.275Z,19.50
2018-11-22T21:05:48.789Z,20.20
2018-11-22T21:07:19.424Z,19.40
2018-11-22T21:08:50.997Z,18.90
2018-11-22T21:10:22.573Z,19.50
2018-11-22T21:11:54.148Z,19.80
2018-11-22T21:13:26.029Z,20.80
2018-11-22T21:14:57.299Z,23.80
2018-11-22T21:19:32.126Z,18.90
2018-11-22T21:22:35.176Z,19.60
2018-11-22T21:24:06.751Z,17.70
2018-11-22T21:25:38.326Z,20.30
2018-11-22T21:27:09.902Z,19.40
2018-11-22T21:28:41.476Z,19.00
2018-11-22T21:30:13.051Z,19.50
2018-11-22T21:31:44.626Z,19.20
2018-11-22T21:33:16.200Z,18.80
2018-11-22T21:34:47.776Z,20.80
2018-11-22T21:36:19.351Z,24.50
2018-11-22T21:37:51.764Z,22.30
2018-11-22T21:39:22.502Z,24.50
2018-11-22T21:40:54.075Z,25.80
2018-11-22T21:42:25.649Z,22.50
2018-11-22T21:45:28.799Z,25.10
2018-11-22T21:47:00.373Z,25.30
2018-11-22T21:48:31.948Z,28.20
2018-11-22T21:50:03.836Z,29.10
2018-11-22T21:51:39.354Z,28.00
2018-11-22T21:53:06.671Z,29.20
2018-11-22T21:54:38.246Z,26.20
2018-11-22T21:56:09.838Z,28.10
2018-11-22T21:57:42.231Z,32.00
2018-11-22T21:59:12.969Z,28.10
2018-11-22T22:00:44.543Z,30.00
2018-11-22T22:02:16.117Z,28.60
2018-11-22T22:03:47.693Z,27.90
2018-11-22T22:05:19.266Z,35.30
2018-11-22T22:06:50.841Z,29.90
2018-11-22T22:08:22.416Z,29.90
2018-11-22T22:09:53.990Z,30.80
2018-11-22T22:11:25.565Z,31.70
2018-11-22T22:12:57.448Z,32.70
2018-11-22T22:14:28.714Z,34.00
2018-11-22T22:16:00.391Z,35.10
2018-11-22T22:17:31.865Z,36.20
2018-11-22T22:19:03.438Z,37.80
2018-11-22T22:20:35.015Z,34.00
2018-11-22T22:22:06.587Z,36.00
2018-11-22T22:23:38.161Z,37.60
2018-11-22T22:25:09.739Z,35.20
2018-11-22T22:26:41.310Z,38.80
2018-11-22T22:28:12.888Z,40.90
2018-11-22T22:29:44.768Z,40.70
2018-11-22T22:31:16.033Z,44.00
2018-11-22T22:32:47.608Z,44.70
2018-11-22T22:34:19.282Z,44.90